Time;durP1;ratioP1;P1;durP2;ratioP2;P2;SDS_P1;SDS_P2;PMS_P1;PMS_P2;Temp;Humidity;BMP_temperature;BMP_pressure;BME280_temperature;BME280_humidity;BME280_pressure;Samples;Min_cycle;Max_cycle;Signal;HPM_P1;HPM_P2
2023/07/22 00:09:22;;;;;;;1.10;0.60;;;;;;;;;;20974847;28;20923;-69
2023/07/22 00:19:24;;;;;;;1.30;0.50;;;;;;;;;;20949133;28;20262;-69
2023/07/22 00:29:26;;;;;;;0.90;0.50;;;;;;;;;;21002606;28;20641;-69
2023/07/22 00:39:28;;;;;;;1.00;0.70;;;;;;;;;;21033108;28;20285;-69
2023/07/22 00:49:30;;;;;;;1.13;0.70;;;;;;;;;;21029271;28;20261;-69
2023/07/22 00:59:33;;;;;;;2.63;0.60;;;;;;;;;;21063755;28;20281;-70
2023/07/22 01:09:38;;;;;;;0.80;0.50;;;;;;;;;;20969061;28;20221;-70
2023/07/22 01:19:40;;;;;;;2.33;0.70;;;;;;;;;;20944167;28;20557;-70
2023/07/22 01:29:41;;;;;;;0.73;0.50;;;;;;;;;;20998371;28;20221;-69
2023/07/22 01:39:45;;;;;;;1.27;0.77;;;;;;;;;;21032576;28;20243;-70
2023/07/22 01:49:47;;;;;;;0.97;0.67;;;;;;;;;;21057854;28;20231;-70
2023/07/22 01:59:49;;;;;;;1.27;0.70;;;;;;;;;;21023758;28;20702;-69
2023/07/22 02:09:51;;;;;;;0.83;0.60;;;;;;;;;;21023175;28;20227;-70
2023/07/22 02:19:53;;;;;;;0.93;0.70;;;;;;;;;;21021842;28;20227;-70
2023/07/22 02:29:55;;;;;;;1.43;0.70;;;;;;;;;;20948255;28;20352;-70
2023/07/22 02:39:57;;;;;;;1.00;0.60;;;;;;;;;;20937436;28;20601;-70
2023/07/22 02:49:59;;;;;;;1.43;0.60;;;;;;;;;;20952218;28;20223;-69
2023/07/22 03:00:05;;;;;;;1.53;1.00;;;;;;;;;;21015933;28;20215;-69
2023/07/22 03:10:07;;;;;;;1.57;0.90;;;;;;;;;;21035549;28;20229;-68
2023/07/22 03:20:17;;;;;;;1.13;0.70;;;;;;;;;;20962533;28;20801;-68
2023/07/22 03:30:19;;;;;;;1.53;1.00;;;;;;;;;;20946808;28;20836;-68
2023/07/22 03:40:22;;;;;;;1.40;0.90;;;;;;;;;;21012077;28;20230;-69
2023/07/22 03:50:25;;;;;;;4.00;1.30;;;19.70;99.90;;;;;;21016762;28;20243;-69
2023/07/22 04:00:26;;;;;;;1.43;0.87;;;;;;;;;;20977928;28;20249;-68
2023/07/22 04:10:28;;;;;;;1.73;1.00;;;;;;;;;;20928332;28;20235;-68
2023/07/22 04:20:30;;;;;;;1.33;0.90;;;;;;;;;;20935810;28;20216;-68
2023/07/22 04:30:32;;;;;;;1.53;0.83;;;;;;;;;;20947807;28;20235;-69
2023/07/22 04:40:34;;;;;;;1.83;0.80;;;;;;;;;;20938374;28;20214;-69
2023/07/22 04:50:37;;;;;;;1.30;0.90;;;;;;;;;;20994363;28;20722;-69
2023/07/22 05:00:39;;;;;;;1.80;0.90;;;;;;;;;;21045754;28;20217;-69
2023/07/22 05:10:41;;;;;;;1.73;0.70;;;;;;;;;;21027544;28;20294;-67
2023/07/22 05:20:42;;;;;;;1.00;0.70;;;;;;;;;;21015193;28;20224;-68
2023/07/22 05:30:45;;;;;;;1.40;0.80;;;21.00;99.90;;;;;;20975711;28;20301;-69
2023/07/22 05:40:47;;;;;;;0.93;0.60;;;;;;;;;;21036571;28;20277;-69
2023/07/22 05:50:49;;;;;;;1.20;0.70;;;;;;;;;;21058394;28;20259;-69
2023/07/22 06:00:51;;;;;;;1.10;0.70;;;;;;;;;;21023424;28;20220;-69
2023/07/22 06:10:53;;;;;;;1.33;1.00;;;;;;;;;;21023356;28;20225;-69
2023/07/22 06:20:55;;;;;;;1.60;1.07;;;;;;;;;;21022531;28;20760;-69
2023/07/22 06:30:57;;;;;;;2.80;1.00;;;19.50;99.90;;;;;;20957323;28;20703;-69
2023/07/22 06:40:59;;;;;;;1.17;0.70;;;19.40;99.90;;;;;;21021105;28;20250;-69
2023/07/22 06:51:01;;;;;;;1.90;1.07;;;;;;;;;;21003874;28;20233;-69
2023/07/22 07:01:03;;;;;;;1.93;0.90;;;;;;;;;;21036232;28;20221;-70
2023/07/22 07:11:04;;;;;;;2.20;0.77;;;;;;;;;;20982959;28;20245;-67
2023/07/22 07:21:06;;;;;;;1.17;0.70;;;;;;;;;;20974208;28;20554;-67
2023/07/22 07:31:08;;;;;;;1.00;0.70;;;;;;;;;;20958697;28;20280;-70
2023/07/22 07:41:14;;;;;;;0.80;0.50;;;;;;;;;;20948232;28;20809;-70
2023/07/22 07:51:17;;;;;;;1.00;0.70;;;;;;;;;;20944327;28;20766;-68
2023/07/22 08:01:19;;;;;;;0.97;0.50;;;;;;;;;;20976713;28;20589;-70
2023/07/22 08:11:21;;;;;;;2.43;0.90;;;;;;;;;;20976729;28;20251;-68
2023/07/22 08:21:23;;;;;;;0.97;0.70;;;;;;;;;;21017866;28;20215;-68
2023/07/22 08:31:24;;;;;;;1.17;0.60;;;;;;;;;;20975277;28;20228;-68
2023/07/22 08:41:27;;;;;;;0.67;0.40;;;21.40;99.90;;;;;;20975029;28;20292;-68
2023/07/22 08:51:32;;;;;;;1.30;0.70;;;;;;;;;;20933180;28;20259;-68
2023/07/22 09:01:35;;;;;;;0.90;0.60;;;22.40;99.90;;;;;;20961308;28;20220;-68
2023/07/22 09:11:37;;;;;;;1.10;0.50;;;;;;;;;;20973451;22;20740;-70
2023/07/22 09:21:39;;;;;;;1.47;0.50;;;;;;;;;;20982980;28;20751;-70
2023/07/22 09:31:53;;;;;;;0.88;0.60;;;23.60;99.90;;;;;;20971770;28;20648;-70
2023/07/22 09:41:56;;;;;;;1.65;0.60;;;24.10;95.00;;;;;;20951822;28;20288;-74
2023/07/22 09:51:58;;;;;;;2.85;0.52;;;;;;;;;;20914676;28;20235;-71
2023/07/22 10:02:02;;;;;;;0.60;0.47;;;;;;;;;;20966532;28;20207;-70
2023/07/22 10:12:04;;;;;;;1.05;0.50;;;;;;;;;;20981019;28;20229;-70
2023/07/22 10:22:07;;;;;;;0.67;0.50;;;22.90;95.90;;;;;;20988850;28;20214;-75
2023/07/22 10:32:10;;;;;;;0.80;0.40;;;;;;;;;;20983375;28;20283;-72
2023/07/22 10:42:24;;;;;;;1.60;0.50;;;;;;;;;;20991620;28;20252;-70
2023/07/22 10:52:39;;;;;;;0.80;0.50;;;;;;;;;;20970514;28;20272;-70
2023/07/22 11:02:41;;;;;;;2.22;0.60;;;;;;;;;;20964977;28;20209;-72
2023/07/22 11:12:44;;;;;;;0.77;0.52;;;;;;;;;;20889398;28;20227;-70
2023/07/22 11:22:46;;;;;;;1.00;0.60;;;;;;;;;;20945501;28;20274;-73
2023/07/22 11:32:48;;;;;;;2.83;0.50;;;;;;;;;;20988232;28;20226;-73
2023/07/22 11:42:51;;;;;;;1.35;0.50;;;;;;;;;;20966947;28;20702;-74
2023/07/22 11:52:52;;;;;;;0.57;0.40;;;;;;;;;;20946960;28;20289;-74
2023/07/22 12:02:57;;;;;;;1.05;0.40;;;;;;;;;;20954001;28;20220;-74
2023/07/22 12:13:02;;;;;;;0.88;0.60;;;;;;;;;;20909325;28;20307;-72
2023/07/22 12:23:05;;;;;;;2.78;1.42;;;;;;;;;;20961507;28;20691;-73
2023/07/22 12:33:07;;;;;;;1.23;0.73;;;;;;;;;;20959646;28;20283;-71
2023/07/22 12:43:09;;;;;;;2.50;0.90;;;;;;;;;;20974465;28;20264;-71
2023/07/22 12:53:10;;;;;;;2.55;0.88;;;;;;;;;;20991395;28;20848;-71
2023/07/22 13:03:12;;;;;;;1.20;0.70;;;;;;;;;;20972590;28;20276;-71
2023/07/22 13:13:17;;;;;;;0.82;0.60;;;;;;;;;;20971247;28;20218;-71
2023/07/22 13:23:19;;;;;;;1.23;0.77;;;;;;;;;;20986002;28;20211;-72
2023/07/22 13:33:21;;;;;;;0.93;0.60;;;;;;;;;;20976295;28;20230;-72
2023/07/22 13:43:23;;;;;;;0.82;0.50;;;;;;;;;;20971291;28;20226;-71
2023/07/22 13:53:26;;;;;;;1.45;0.70;;;;;;;;;;20957052;28;20595;-74
2023/07/22 14:03:30;;;;;;;1.67;0.73;;;;;;;;;;20947123;28;20265;-73
2023/07/22 14:13:31;;;;;;;0.90;0.60;;;;;;;;;;20974057;28;20293;-73
2023/07/22 14:23:33;;;;;;;1.70;0.80;;;;;;;;;;20927320;28;20693;-73
2023/07/22 14:33:36;;;;;;;0.93;0.43;;;;;;;;;;20976376;28;20661;-73
2023/07/22 14:43:38;;;;;;;1.90;0.77;;;;;;;;;;20942362;28;20211;-73
2023/07/22 14:53:43;;;;;;;1.48;0.80;;;26.80;71.80;;;;;;20964950;28;20280;-73
2023/07/22 15:03:45;;;;;;;1.25;0.70;;;;;;;;;;20961512;28;20598;-73
2023/07/22 15:13:48;;;;;;;2.65;0.70;;;;;;;;;;20962256;28;20755;-73
2023/07/22 15:23:54;;;;;;;1.08;0.70;;;;;;;;;;20996352;28;20320;-73
2023/07/22 15:33:57;;;;;;;1.10;0.65;;;;;;;;;;20937190;23;20282;-79
2023/07/22 15:44:02;;;;;;;1.27;0.70;;;;;;;;;;20878603;28;20223;-84
2023/07/22 15:54:04;;;;;;;3.10;0.80;;;;;;;;;;20857213;28;20232;-80
2023/07/22 16:04:07;;;;;;;1.63;0.77;;;;;;;;;;20860077;28;20229;-79
2023/07/22 16:14:09;;;;;;;1.90;1.10;;;;;;;;;;20852689;28;20236;-78
2023/07/22 16:24:11;;;;;;;1.10;0.60;;;;;;;;;;20878243;28;20271;-79
2023/07/22 16:34:13;;;;;;;0.82;0.63;;;;;;;;;;20846019;28;20286;-79
2023/07/22 16:44:16;;;;;;;1.52;0.70;;;;;;;;;;20910918;28;20286;-79
2023/07/22 16:54:18;;;;;;;1.55;0.80;;;;;;;;;;20917195;28;20236;-78
2023/07/22 17:04:19;;;;;;;1.85;0.70;;;;;;;;;;20906172;28;20240;-78
2023/07/22 17:14:22;;;;;;;1.20;0.80;;;;;;;;;;20946123;28;20613;-80
2023/07/22 17:24:24;;;;;;;1.20;0.77;;;;;;;;;;20932013;28;20245;-77
2023/07/22 17:34:26;;;;;;;1.02;0.52;;;;;;;;;;20915349;28;20314;-78
2023/07/22 17:44:33;;;;;;;0.98;0.60;;;;;;;;;;20895120;28;20242;-77
2023/07/22 17:54:36;;;;;;;1.85;0.70;;;;;;;;;;20946445;28;20846;-78
2023/07/22 18:04:37;;;;;;;0.70;0.50;;;;;;;;;;20876861;28;20569;-78
2023/07/22 18:14:39;;;;;;;1.08;0.70;;;;;;;;;;20885630;28;20263;-78
2023/07/22 18:24:41;;;;;;;2.30;0.70;;;;;;;;;;20909500;28;20266;-77
2023/07/22 18:34:44;;;;;;;2.22;0.82;;;;;;;;;;20926664;28;20308;-78
2023/07/22 18:44:46;;;;;;;2.53;0.80;;;;;;;;;;20959522;28;20228;-77
2023/07/22 18:54:48;;;;;;;0.95;0.70;;;;;;;;;;20981999;28;20266;-79
2023/07/22 19:04:50;;;;;;;3.95;0.70;;;;;;;;;;21040745;28;20260;-79
2023/07/22 19:14:53;;;;;;;1.42;0.70;;;;;;;;;;20931718;28;20716;-78
2023/07/22 19:24:54;;;;;;;1.73;0.80;;;;;;;;;;20969637;28;20269;-78
2023/07/22 19:34:56;;;;;;;1.52;0.90;;;;;;;;;;20913457;28;20272;-77
2023/07/22 19:44:58;;;;;;;1.38;0.75;;;;;;;;;;20978894;28;20768;-79
2023/07/22 19:54:59;;;;;;;3.17;1.30;;;;;;;;;;20956758;28;20230;-78
2023/07/22 20:05:01;;;;;;;2.85;1.50;;;;;;;;;;20951890;28;20249;-79
2023/07/22 20:15:03;;;;;;;0.95;0.60;;;;;;;;;;20935859;28;20296;-80
2023/07/22 20:25:05;;;;;;;1.27;0.88;;;;;;;;;;20970196;28;20256;-79
2023/07/22 20:35:09;;;;;;;1.70;1.05;;;;;;;;;;20975883;28;20247;-79
2023/07/22 20:45:11;;;;;;;1.23;0.70;;;;;;;;;;20897414;28;20226;-80
2023/07/22 20:55:13;;;;;;;1.77;0.98;;;;;;;;;;20864586;28;20230;-80
2023/07/22 21:05:14;;;;;;;1.77;0.93;;;;;;;;;;20906474;28;20234;-79
2023/07/22 21:15:16;;;;;;;3.05;1.00;;;;;;;;;;20907131;28;20279;-78
2023/07/22 21:25:18;;;;;;;1.88;1.13;;;;;;;;;;20907644;28;20292;-79
2023/07/22 21:35:19;;;;;;;1.38;0.82;;;;;;;;;;20923837;28;20288;-79
2023/07/22 21:45:21;;;;;;;2.50;0.90;;;;;;;;;;20962776;28;20213;-80
2023/07/22 21:55:23;;;;;;;2.65;1.25;;;;;;;;;;20890305;28;20310;-79
2023/07/22 22:05:24;;;;;;;1.92;1.02;;;;;;;;;;20991763;28;20295;-79
2023/07/22 22:15:26;;;;;;;4.10;0.98;;;;;;;;;;20951856;28;20540;-80
2023/07/22 22:25:28;;;;;;;1.73;0.90;;;;;;;;;;20976761;28;20278;-80
2023/07/22 22:35:30;;;;;;;1.27;0.85;;;;;;;;;;20958160;28;20241;-78
2023/07/22 22:45:31;;;;;;;1.85;0.90;;;;;;;;;;20981519;28;20216;-79
2023/07/22 22:55:33;;;;;;;1.88;1.00;;;;;;;;;;21000266;28;20307;-76
2023/07/22 23:05:35;;;;;;;1.77;1.02;;;;;;;;;;20960896;28;20221;-79
2023/07/22 23:15:36;;;;;;;1.92;0.88;;;;;;;;;;21000027;28;20709;-78
2023/07/22 23:25:38;;;;;;;2.28;0.93;;;;;;;;;;21016448;28;20630;-78
2023/07/22 23:35:40;;;;;;;1.27;0.70;;;;;;;;;;21000913;28;20235;-79
2023/07/22 23:45:41;;;;;;;2.67;1.10;;;;;;;;;;20989548;28;20677;-79
2023/07/22 23:55:43;;;;;;;1.70;0.80;;;;;;;;;;21032448;28;20710;-79
